createdAt,value
2022-12-23T06:58:49.504Z,1001.05
2022-12-23T07:05:08.984Z,1000.99
2022-12-23T07:11:31.991Z,1000.93
2022-12-23T07:17:52.008Z,1001.01
2022-12-23T07:24:15.004Z,1001.25
2022-12-23T07:30:34.994Z,1001.46
2022-12-23T07:36:58.029Z,1001.62
2022-12-23T07:43:18.011Z,1001.66
2022-12-23T07:49:40.996Z,1001.66
2022-12-23T07:56:00.994Z,1001.68
2022-12-23T08:02:24.275Z,1001.7
2022-12-23T08:08:43.979Z,1001.68
2022-12-23T08:15:07.012Z,1001.66
2022-12-23T08:21:27.026Z,1001.68
2022-12-23T08:27:49.998Z,1001.68
2022-12-23T08:34:10.043Z,1001.64
2022-12-23T08:40:32.991Z,1001.58
2022-12-23T08:46:53.000Z,1001.54
2022-12-23T08:53:16.054Z,1001.58
2022-12-23T08:59:35.992Z,1001.54
2022-12-23T09:05:59.015Z,1001.5
2022-12-23T09:12:19.009Z,1001.58
2022-12-23T09:18:42.023Z,1001.54
2022-12-23T09:25:05.141Z,1001.56
2022-12-23T09:31:27.836Z,1001.5
2022-12-23T09:37:45.025Z,1001.38
2022-12-23T09:44:08.133Z,1001.33
2022-12-23T09:50:28.037Z,1001.29
2022-12-23T09:56:51.033Z,1001.21
2022-12-23T10:03:11.124Z,1001.09
2022-12-23T10:16:19.031Z,1000.95
2022-12-23T10:22:42.016Z,1000.86
2022-12-23T10:29:01.986Z,1000.74
2022-12-23T10:35:25.014Z,1000.54
2022-12-23T10:41:44.996Z,1000.41
2022-12-23T10:48:12.133Z,1000.2
2022-12-23T10:54:28.022Z,1000.09
2022-12-23T11:00:51.095Z,999.89
2022-12-23T11:07:41.913Z,999.85
2022-12-23T11:13:34.020Z,999.87
2022-12-23T11:19:54.027Z,999.77
2022-12-23T11:26:16.992Z,999.73
2022-12-23T11:32:36.998Z,999.65
2022-12-23T11:39:00.010Z,999.56
2022-12-23T11:45:19.987Z,999.42
2022-12-23T11:51:43.003Z,999.26
2022-12-23T11:58:03.007Z,999.2
2022-12-23T12:04:27.073Z,999.05
2022-12-23T12:10:47.119Z,998.85
2022-12-23T12:17:10.213Z,998.56
2022-12-23T12:23:29.977Z,998.34
2022-12-23T12:29:53.036Z,998.15
2022-12-23T12:36:13.016Z,998.07
2022-12-23T12:42:35.999Z,997.99
2022-12-23T12:48:56.133Z,997.83
2022-12-23T12:55:19.097Z,997.61
2022-12-23T13:01:39.123Z,997.47
2022-12-23T13:08:02.033Z,997.4
2022-12-23T13:14:22.015Z,997.26
2022-12-23T13:20:44.980Z,997
2022-12-23T13:27:05.011Z,996.83
2022-12-23T13:33:28.085Z,996.63
2022-12-23T13:39:47.987Z,996.59
2022-12-23T13:46:11.214Z,996.63
2022-12-23T13:52:30.992Z,996.57
2022-12-23T13:58:54.027Z,996.34
2022-12-23T14:05:16.705Z,996.22
2022-12-23T14:11:37.025Z,996.1
2022-12-23T14:18:00.983Z,996.01
2022-12-23T14:24:20.041Z,995.93
2022-12-23T14:30:40.017Z,995.93
2022-12-23T14:37:03.013Z,995.81
2022-12-23T14:43:23.210Z,995.65
2022-12-23T14:49:46.071Z,995.63
2022-12-23T14:56:06.006Z,995.65
2022-12-23T15:02:29.210Z,995.63
2022-12-23T15:08:49.020Z,995.63
2022-12-23T15:31:37.082Z,995.63
2022-12-23T15:38:00.011Z,995.75
2022-12-23T15:44:19.995Z,995.75
2022-12-23T15:50:43.023Z,995.79
2022-12-23T15:57:02.999Z,995.83
2022-12-23T16:03:26.079Z,995.87
2022-12-23T16:09:47.040Z,995.93
2022-12-23T16:16:10.028Z,996.01
2022-12-23T16:22:30.985Z,996.05
2022-12-23T16:28:54.017Z,996.12
2022-12-23T16:35:13.972Z,996.22
2022-12-23T16:41:37.091Z,996.28
2022-12-23T16:47:57.024Z,996.3
2022-12-23T16:54:19.988Z,996.44
2022-12-23T17:00:39.990Z,996.65
2022-12-23T17:07:03.035Z,996.87
2022-12-23T17:13:22.994Z,997.02
2022-12-23T17:19:45.990Z,997.14
2022-12-23T17:26:05.997Z,997.24
2022-12-23T17:32:29.093Z,997.38
2022-12-23T17:38:48.977Z,997.4
2022-12-23T17:45:12.020Z,997.51
2022-12-23T17:51:32.014Z,997.61
2022-12-23T17:57:54.979Z,997.65
2022-12-23T18:04:15.052Z,997.67
2022-12-23T18:10:37.989Z,997.79
2022-12-23T18:16:58.120Z,997.85
2022-12-23T18:23:21.067Z,997.95
2022-12-23T18:29:40.995Z,998.01
2022-12-23T18:36:04.023Z,998.11
2022-12-23T18:42:24.015Z,998.19
2022-12-23T18:48:46.990Z,998.21
2022-12-23T18:55:06.990Z,998.26
2022-12-23T19:01:30.081Z,998.3
2022-12-23T19:07:50.006Z,998.34
2022-12-23T19:14:12.982Z,998.36
2022-12-23T19:20:33.002Z,998.44
2022-12-23T19:26:55.973Z,998.42
2022-12-23T19:33:15.973Z,998.44
2022-12-23T19:39:39.028Z,998.46
2022-12-23T19:45:59.000Z,998.5
2022-12-23T19:52:21.971Z,998.6
2022-12-23T19:58:42.028Z,998.77
2022-12-23T20:05:05.030Z,998.89
2022-12-23T20:11:25.012Z,999.03
2022-12-23T20:17:48.010Z,999.13
2022-12-23T20:24:07.997Z,999.24
2022-12-23T20:30:30.993Z,999.32
2022-12-23T20:36:51.029Z,999.42
2022-12-23T21:00:32.015Z,999.75
2022-12-23T21:06:55.012Z,999.75
2022-12-23T21:13:14.985Z,999.85
2022-12-23T21:19:38.059Z,999.93
2022-12-23T21:25:57.976Z,999.99
2022-12-23T21:32:20.993Z,1000.07
2022-12-23T21:38:40.995Z,1000.18
2022-12-23T21:45:04.010Z,1000.39
2022-12-23T21:51:24.059Z,1000.46
2022-12-23T21:57:47.051Z,1000.54
2022-12-23T22:04:06.989Z,1000.64
2022-12-23T22:10:29.986Z,1000.76
2022-12-23T22:16:50.072Z,1000.82
2022-12-23T22:23:12.994Z,1000.86
2022-12-23T22:29:32.982Z,1000.97
2022-12-23T22:35:56.144Z,1001.09
2022-12-23T22:42:15.976Z,1001.25
2022-12-23T22:48:38.999Z,1001.38
2022-12-23T22:54:59.023Z,1001.46
2022-12-23T23:20:33.010Z,1001.85
2022-12-23T23:26:53.005Z,1001.93
2022-12-23T23:33:16.033Z,1001.97
2022-12-23T23:39:36.059Z,1001.99
2022-12-23T23:45:59.041Z,1002.01
2022-12-23T23:52:19.019Z,1002.07
2022-12-23T23:58:42.038Z,1002.13
